createdAt,value
2018-09-04T00:00:12.615Z,49.50
2018-09-04T00:02:39.898Z,45.43
2018-09-04T00:05:07.418Z,48.30
2018-09-04T00:07:34.667Z,42.97
2018-09-04T00:10:02.492Z,43.40
2018-09-04T00:12:29.807Z,39.87
2018-09-04T00:14:57.064Z,39.10
2018-09-04T00:17:24.429Z,41.63
2018-09-04T00:22:41.831Z,36.37
2018-09-04T00:25:09.129Z,34.03
2018-09-04T00:27:36.428Z,31.70
2018-09-04T00:30:04.123Z,31.30
2018-09-04T00:32:31.703Z,31.50
2018-09-04T00:34:59.013Z,32.10
2018-09-04T00:37:26.354Z,33.67
2018-09-04T00:39:53.666Z,32.70
2018-09-04T00:42:20.934Z,32.63
2018-09-04T00:44:48.192Z,34.47
2018-09-04T00:47:15.463Z,35.40
2018-09-04T00:49:42.821Z,32.30
2018-09-04T00:52:10.166Z,32.00
2018-09-04T00:54:37.431Z,33.63
2018-09-04T00:57:04.826Z,33.97
2018-09-04T00:59:32.088Z,37.23
2018-09-04T01:01:59.505Z,36.10
2018-09-04T01:04:27.028Z,38.83
2018-09-04T01:06:54.429Z,42.13
2018-09-04T01:09:22.600Z,41.83
2018-09-04T01:11:50.087Z,42.43
2018-09-04T01:14:17.348Z,41.60
2018-09-04T01:16:44.883Z,40.70
2018-09-04T01:19:12.421Z,39.13
2018-09-04T01:21:39.723Z,36.57
2018-09-04T01:24:08.434Z,37.47
2018-09-04T01:26:35.935Z,37.27
2018-09-04T01:29:03.471Z,36.07
2018-09-04T01:31:30.741Z,35.93
2018-09-04T01:33:58.399Z,35.10
2018-09-04T01:36:25.620Z,37.73
2018-09-04T01:38:52.895Z,35.67
2018-09-04T01:41:20.122Z,34.07
2018-09-04T01:43:47.454Z,33.90
2018-09-04T01:46:14.671Z,34.17
2018-09-04T01:48:41.912Z,34.63
2018-09-04T01:51:09.257Z,33.57
2018-09-04T01:53:36.510Z,32.07
2018-09-04T01:56:03.737Z,33.97
2018-09-04T01:58:30.977Z,32.57
2018-09-04T02:00:58.198Z,30.63
2018-09-04T02:03:25.473Z,33.23
2018-09-04T02:05:52.716Z,31.07
2018-09-04T02:08:19.985Z,30.77
2018-09-04T02:10:47.284Z,31.07
2018-09-04T02:13:14.580Z,30.37
2018-09-04T02:15:41.849Z,30.03
2018-09-04T02:18:09.494Z,27.90
2018-09-04T02:20:36.875Z,28.87
2018-09-04T02:23:04.324Z,27.40
2018-09-04T02:25:31.597Z,27.87
2018-09-04T02:27:58.925Z,30.13
2018-09-04T02:30:26.194Z,28.40
2018-09-04T02:32:53.534Z,25.40
2018-09-04T02:35:20.830Z,25.40
2018-09-04T02:37:48.122Z,27.33
2018-09-04T02:40:15.401Z,27.23
2018-09-04T02:42:42.671Z,27.77
2018-09-04T02:45:09.979Z,26.43
2018-09-04T02:47:37.274Z,28.93
2018-09-04T02:50:04.651Z,28.83
2018-09-04T02:52:31.978Z,32.20
2018-09-04T02:54:59.509Z,29.40
2018-09-04T02:57:26.976Z,29.27
2018-09-04T02:59:54.217Z,31.17
2018-09-04T03:02:21.471Z,32.53
2018-09-04T03:04:48.711Z,32.30
2018-09-04T03:07:15.971Z,36.57
2018-09-04T03:09:43.287Z,36.70
2018-09-04T03:12:10.529Z,37.00
2018-09-04T03:14:37.764Z,38.40
2018-09-04T03:17:05.022Z,39.53
2018-09-04T03:19:33.759Z,39.83
2018-09-04T03:22:02.326Z,44.07
2018-09-04T03:24:30.486Z,44.87
2018-09-04T03:26:57.774Z,44.47
2018-09-04T03:29:25.042Z,44.87
2018-09-04T03:31:52.284Z,44.03
2018-09-04T03:34:19.562Z,47.30
2018-09-04T03:36:46.860Z,44.37
2018-09-04T03:39:14.334Z,45.67
2018-09-04T03:41:41.574Z,45.23
2018-09-04T03:44:08.851Z,42.43
2018-09-04T03:46:36.117Z,40.00
2018-09-04T03:49:03.409Z,40.60
2018-09-04T03:51:30.652Z,39.03
2018-09-04T03:53:57.930Z,41.87
2018-09-04T03:56:25.155Z,42.60
2018-09-04T03:58:52.419Z,43.50
2018-09-04T04:01:19.692Z,43.20
2018-09-04T04:03:46.980Z,40.17
2018-09-04T04:06:14.255Z,45.00
2018-09-04T04:08:43.728Z,43.47
2018-09-04T04:11:11.692Z,44.83
2018-09-04T04:13:38.956Z,42.07
2018-09-04T04:16:06.847Z,38.73
2018-09-04T04:18:34.150Z,40.67
2018-09-04T04:21:01.878Z,40.97
2018-09-04T04:23:29.922Z,37.80
2018-09-04T04:25:58.957Z,38.90
2018-09-04T04:28:26.376Z,39.23
2018-09-04T04:30:53.688Z,37.67
2018-09-04T04:33:21.339Z,40.07
2018-09-04T04:35:48.712Z,43.77
2018-09-04T04:38:16.140Z,46.53
2018-09-04T04:40:43.626Z,40.73
2018-09-04T04:43:11.171Z,41.63
2018-09-04T04:45:38.994Z,42.77
2018-09-04T04:48:06.487Z,43.73
2018-09-04T04:50:34.268Z,44.07
2018-09-04T04:53:01.668Z,45.43
2018-09-04T04:55:29.153Z,48.20
2018-09-04T04:58:08.766Z,45.23
2018-09-04T05:00:36.252Z,44.13
2018-09-04T05:03:03.911Z,45.40
2018-09-04T05:05:31.415Z,46.17
2018-09-04T05:07:58.818Z,50.53
2018-09-04T05:10:27.371Z,46.63
2018-09-04T05:12:55.410Z,45.37
2018-09-04T05:15:22.850Z,44.83
2018-09-04T05:17:50.243Z,44.60
2018-09-04T05:20:22.248Z,43.63
2018-09-04T05:22:49.726Z,44.53
2018-09-04T05:25:18.470Z,43.20
2018-09-04T05:27:45.995Z,41.90
2018-09-04T05:30:13.533Z,41.80
2018-09-04T05:32:45.764Z,45.10
2018-09-04T05:35:14.307Z,43.63
2018-09-04T05:37:42.504Z,45.03
2018-09-04T05:40:10.043Z,44.07
2018-09-04T05:42:43.792Z,42.10
2018-09-04T05:45:11.703Z,42.00
2018-09-04T05:47:40.124Z,41.70
2018-09-04T05:50:08.600Z,39.23
2018-09-04T05:52:36.357Z,40.07
2018-09-04T05:55:04.115Z,43.53
2018-09-04T05:57:32.196Z,43.37
2018-09-04T06:00:00.480Z,41.00
2018-09-04T06:02:29.633Z,41.10
2018-09-04T06:04:57.037Z,43.47
2018-09-04T06:07:24.539Z,42.07
2018-09-04T06:09:52.048Z,43.43
2018-09-04T06:12:19.434Z,42.37
2018-09-04T06:14:46.945Z,41.43
2018-09-04T06:17:14.475Z,40.50
2018-09-04T06:19:42.007Z,42.43
2018-09-04T06:22:09.455Z,44.50
2018-09-04T06:24:36.888Z,39.47
2018-09-04T06:27:04.851Z,40.17
2018-09-04T06:29:32.533Z,40.10
2018-09-04T06:31:59.908Z,35.97
2018-09-04T06:34:27.336Z,38.50
2018-09-04T06:36:54.811Z,36.87
2018-09-04T06:39:22.362Z,39.27
2018-09-04T06:41:49.855Z,42.07
2018-09-04T06:44:17.366Z,44.37
2018-09-04T06:46:44.802Z,39.10
2018-09-04T06:49:13.993Z,39.50
2018-09-04T06:51:42.845Z,44.13
2018-09-04T06:54:10.369Z,43.30
2018-09-04T06:56:39.912Z,41.10
2018-09-04T06:59:08.698Z,41.67
2018-09-04T07:01:36.800Z,37.73
2018-09-04T07:04:04.564Z,35.40
2018-09-04T07:06:35.862Z,37.60
2018-09-04T07:09:04.212Z,39.00
2018-09-04T07:11:31.560Z,40.10
2018-09-04T07:13:58.891Z,39.37
2018-09-04T07:16:26.286Z,38.27
2018-09-04T07:18:53.725Z,37.47
2018-09-04T07:21:21.199Z,38.63
2018-09-04T07:23:49.027Z,40.27
2018-09-04T07:26:17.391Z,41.43
2018-09-04T07:28:44.884Z,38.13
2018-09-04T07:31:13.013Z,40.12
2018-09-04T07:33:40.392Z,37.38
2018-09-04T07:36:07.856Z,36.05
2018-09-04T07:38:35.296Z,38.25
2018-09-04T07:41:02.827Z,40.20
2018-09-04T07:43:30.449Z,38.90
2018-09-04T07:45:57.872Z,38.65
2018-09-04T07:48:25.919Z,40.28
2018-09-04T07:50:53.356Z,39.45
2018-09-04T07:53:20.740Z,38.85
2018-09-04T07:55:48.141Z,37.53
2018-09-04T07:58:16.409Z,37.23
2018-09-04T08:00:43.936Z,34.55
2018-09-04T08:03:11.333Z,35.70
2018-09-04T08:05:54.304Z,35.20
2018-09-04T08:08:36.969Z,33.08
2018-09-04T08:11:20.548Z,35.90
2018-09-04T08:13:55.013Z,34.23
2018-09-04T08:16:22.488Z,35.68
2018-09-04T08:18:50.620Z,34.88
2018-09-04T08:21:18.098Z,35.35
2018-09-04T08:23:45.481Z,35.30
2018-09-04T08:26:13.514Z,32.83
2018-09-04T08:28:42.722Z,35.48
2018-09-04T08:31:11.836Z,31.52
2018-09-04T08:33:39.737Z,35.30
2018-09-04T08:36:09.125Z,34.08
2018-09-04T08:38:42.118Z,36.00
2018-09-04T08:41:09.674Z,35.50
2018-09-04T08:43:37.264Z,34.43
2018-09-04T08:46:04.955Z,33.08
2018-09-04T08:48:33.001Z,35.88
2018-09-04T08:51:10.794Z,33.58
2018-09-04T08:53:49.919Z,33.88
2018-09-04T08:56:28.626Z,34.60
2018-09-04T08:58:57.084Z,35.43
2018-09-04T09:01:24.530Z,34.53
2018-09-04T09:03:52.290Z,35.90
2018-09-04T09:06:19.534Z,35.88
2018-09-04T09:08:47.463Z,32.98
2018-09-04T09:11:15.185Z,33.02
2018-09-04T09:13:42.654Z,33.63
2018-09-04T09:16:13.549Z,33.73
2018-09-04T09:18:40.957Z,32.83
2018-09-04T09:21:08.917Z,34.25
2018-09-04T09:23:36.331Z,34.38
2018-09-04T09:26:03.863Z,33.02
2018-09-04T09:28:31.445Z,32.70
2018-09-04T09:30:58.805Z,33.15
2018-09-04T09:33:26.258Z,31.37
2018-09-04T09:35:53.642Z,33.25
2018-09-04T09:38:21.140Z,31.82
2018-09-04T09:40:49.194Z,32.50
2018-09-04T09:43:17.178Z,29.52
2018-09-04T09:45:44.511Z,28.80
2018-09-04T09:48:12.102Z,30.00
2018-09-04T09:50:40.478Z,29.45
2018-09-04T09:53:08.019Z,29.98
2018-09-04T09:55:35.304Z,30.12
2018-09-04T09:58:02.769Z,27.90
2018-09-04T10:00:32.976Z,29.48
2018-09-04T10:03:09.685Z,28.42
2018-09-04T10:05:37.397Z,29.70
2018-09-04T10:08:05.349Z,27.02
2018-09-04T10:10:32.814Z,27.32
2018-09-04T10:13:00.300Z,27.82
2018-09-04T10:15:28.949Z,28.25
2018-09-04T10:17:56.419Z,25.40
2018-09-04T10:20:23.879Z,28.27
2018-09-04T10:22:52.869Z,26.50
2018-09-04T10:25:20.231Z,26.42
2018-09-04T10:27:48.728Z,30.10
2018-09-04T10:30:17.936Z,28.55
2018-09-04T10:32:52.465Z,27.93
2018-09-04T10:35:20.931Z,26.42
2018-09-04T10:37:48.588Z,25.97
2018-09-04T10:40:21.420Z,24.65
2018-09-04T10:42:49.379Z,24.57
2018-09-04T10:45:22.393Z,25.02
2018-09-04T10:47:52.677Z,21.73
2018-09-04T10:50:21.674Z,23.12
2018-09-04T10:52:51.682Z,24.87
2018-09-04T10:55:19.236Z,24.40
2018-09-04T10:57:46.879Z,22.77
2018-09-04T11:00:15.890Z,23.45
2018-09-04T11:02:43.339Z,21.97
2018-09-04T11:05:10.774Z,23.75
2018-09-04T11:07:38.260Z,21.75
2018-09-04T11:10:06.189Z,22.85
2018-09-04T11:12:33.705Z,24.00
2018-09-04T11:15:01.282Z,21.37
2018-09-04T11:17:28.992Z,19.23
2018-09-04T11:20:03.161Z,19.25
2018-09-04T11:22:30.530Z,19.42
2018-09-04T11:24:58.228Z,20.50
2018-09-04T11:27:26.228Z,19.10
2018-09-04T11:29:53.953Z,19.05
2018-09-04T11:32:22.261Z,18.75
2018-09-04T11:34:49.943Z,20.48
2018-09-04T11:37:17.671Z,18.40
2018-09-04T11:39:45.150Z,18.00
2018-09-04T11:42:13.684Z,20.70
2018-09-04T11:44:42.851Z,17.62
2018-09-04T11:47:12.754Z,20.52
2018-09-04T11:49:40.887Z,19.57
2018-09-04T11:52:09.252Z,18.53
2018-09-04T11:54:36.947Z,18.52
2018-09-04T11:57:05.042Z,19.90
2018-09-04T11:59:37.863Z,17.55
2018-09-04T12:02:06.818Z,17.92
2018-09-04T12:04:34.666Z,17.12
2018-09-04T12:07:02.374Z,17.48
2018-09-04T12:09:29.922Z,17.12
2018-09-04T12:11:57.565Z,15.10
2018-09-04T12:14:30.751Z,17.90
2018-09-04T12:16:58.257Z,16.60
2018-09-04T12:19:27.330Z,15.48
2018-09-04T12:21:54.920Z,14.00
2018-09-04T12:24:22.518Z,15.35
2018-09-04T12:26:49.895Z,16.55
2018-09-04T12:29:17.359Z,15.90
2018-09-04T12:31:45.588Z,14.15
2018-09-04T12:34:13.016Z,15.03
2018-09-04T12:36:40.651Z,15.75
2018-09-04T12:39:08.211Z,13.45
2018-09-04T12:41:37.793Z,13.88
2018-09-04T12:44:05.336Z,16.12
2018-09-04T12:46:34.737Z,16.65
2018-09-04T12:49:02.512Z,14.98
2018-09-04T12:51:30.082Z,15.75
2018-09-04T12:53:57.608Z,14.45
2018-09-04T12:56:25.114Z,14.55
2018-09-04T12:58:52.669Z,14.65
2018-09-04T13:01:21.159Z,14.95
2018-09-04T13:03:48.528Z,13.55
2018-09-04T13:06:16.139Z,17.37
2018-09-04T13:08:43.583Z,15.53
2018-09-04T13:11:11.358Z,15.93
2018-09-04T13:13:40.564Z,15.35
2018-09-04T13:16:09.601Z,14.85
2018-09-04T13:18:38.497Z,13.38
2018-09-04T13:21:06.170Z,15.48
2018-09-04T13:23:34.794Z,13.88
2018-09-04T13:26:02.746Z,12.93
2018-09-04T13:28:31.084Z,13.18
2018-09-04T13:30:59.251Z,11.75
2018-09-04T13:33:27.528Z,11.93
2018-09-04T13:35:55.580Z,10.13
2018-09-04T13:38:26.191Z,11.63
2018-09-04T13:40:59.365Z,11.88
2018-09-04T13:43:26.814Z,11.70
2018-09-04T13:45:54.328Z,11.08
2018-09-04T13:48:27.808Z,10.05
2018-09-04T13:50:55.538Z,11.38
2018-09-04T13:53:23.882Z,10.98
2018-09-04T13:55:51.445Z,11.12
2018-09-04T13:58:19.336Z,10.40
2018-09-04T14:00:46.877Z,9.43
2018-09-04T14:03:14.285Z,9.90
2018-09-04T14:05:41.726Z,10.28
2018-09-04T14:08:09.827Z,9.80
2018-09-04T14:10:37.915Z,14.25
2018-09-04T14:13:05.635Z,10.55
2018-09-04T14:15:33.698Z,10.93
2018-09-04T14:18:01.136Z,10.80
2018-09-04T14:20:28.612Z,10.58
2018-09-04T14:22:56.799Z,10.58
2018-09-04T14:25:24.367Z,10.30
2018-09-04T14:27:52.135Z,11.53
2018-09-04T14:30:19.814Z,11.05
2018-09-04T14:32:47.893Z,11.70
2018-09-04T14:35:15.952Z,12.28
2018-09-04T14:37:43.375Z,11.40
2018-09-04T14:40:10.941Z,11.75
2018-09-04T14:42:39.022Z,10.53
2018-09-04T14:45:07.652Z,12.28
2018-09-04T14:47:37.316Z,11.40
2018-09-04T14:50:06.107Z,9.80
2018-09-04T14:52:34.401Z,11.25
2018-09-04T14:55:01.900Z,10.65
2018-09-04T14:57:32.268Z,11.83
2018-09-04T14:59:59.792Z,10.58
2018-09-04T15:02:38.873Z,11.10
2018-09-04T15:05:06.847Z,10.08
2018-09-04T15:07:36.664Z,10.35
2018-09-04T15:10:08.635Z,10.98
2018-09-04T15:12:41.003Z,9.25
2018-09-04T15:19:03.556Z,10.08
2018-09-04T15:21:36.224Z,11.10
2018-09-04T15:24:06.413Z,10.13
2018-09-04T15:26:34.024Z,9.83
2018-09-04T15:29:02.824Z,8.53
2018-09-04T15:31:30.419Z,9.78
2018-09-04T15:33:57.858Z,9.23
2018-09-04T15:36:25.425Z,9.83
2018-09-04T15:38:53.528Z,10.95
2018-09-04T15:41:21.679Z,10.43
2018-09-04T15:43:49.105Z,10.05
2018-09-04T15:46:16.630Z,10.72
2018-09-04T15:49:51.234Z,9.68
2018-09-04T15:52:18.729Z,10.25
2018-09-04T15:54:46.150Z,10.68
2018-09-04T15:57:14.127Z,10.85
2018-09-04T15:59:41.490Z,10.55
2018-09-04T16:02:09.054Z,10.38
2018-09-04T16:04:36.949Z,9.83
2018-09-04T16:07:04.394Z,9.98
2018-09-04T16:09:31.884Z,10.80
2018-09-04T16:11:59.205Z,10.10
2018-09-04T16:14:26.675Z,9.60
2018-09-04T16:16:54.937Z,10.50
2018-09-04T16:19:22.535Z,10.90
2018-09-04T16:21:50.893Z,10.63
2018-09-04T16:24:18.235Z,10.03
2018-09-04T16:29:39.147Z,10.08
2018-09-04T16:35:22.978Z,9.65
2018-09-04T16:38:01.410Z,8.93
2018-09-04T16:40:39.443Z,9.63
2018-09-04T16:43:10.599Z,9.75
2018-09-04T16:45:40.705Z,9.20
2018-09-04T16:48:08.169Z,9.85
2018-09-04T16:50:42.889Z,9.25
2018-09-04T16:55:54.935Z,9.25
2018-09-04T16:58:22.707Z,9.78
2018-09-04T17:01:02.505Z,9.70
2018-09-04T17:03:40.970Z,9.20
2018-09-04T17:06:17.191Z,9.90
2018-09-04T17:08:44.908Z,9.65
2018-09-04T17:13:50.261Z,9.73
2018-09-04T17:16:19.636Z,10.90
2018-09-04T17:18:47.990Z,9.83
2018-09-04T17:21:21.443Z,8.75
2018-09-04T17:23:49.227Z,8.95
2018-09-04T17:26:17.944Z,9.78
2018-09-04T17:28:47.716Z,9.08
2018-09-04T17:31:15.183Z,9.33
2018-09-04T17:33:45.384Z,9.15
2018-09-04T17:36:13.165Z,8.70
2018-09-04T17:38:40.636Z,10.30
2018-09-04T17:41:15.289Z,9.83
2018-09-04T17:43:46.155Z,10.85
2018-09-04T17:46:14.389Z,9.68
2018-09-04T17:48:42.920Z,9.28
2018-09-04T17:51:12.005Z,9.65
2018-09-04T17:53:41.829Z,10.18
2018-09-04T17:56:10.132Z,9.78
2018-09-04T17:58:39.267Z,10.00
2018-09-04T18:01:07.854Z,11.75
2018-09-04T18:03:35.666Z,11.97
2018-09-04T18:06:04.031Z,9.38
2018-09-04T18:08:31.663Z,9.73
2018-09-04T18:11:03.676Z,10.88
2018-09-04T18:13:31.168Z,10.10
2018-09-04T18:15:58.662Z,9.80
2018-09-04T18:18:26.050Z,10.63
2018-09-04T18:20:53.650Z,11.50
2018-09-04T18:23:21.380Z,10.07
2018-09-04T18:25:48.841Z,10.13
2018-09-04T18:28:16.340Z,10.30
2018-09-04T18:30:44.851Z,9.40
2018-09-04T18:33:12.434Z,11.07
2018-09-04T18:35:41.478Z,10.23
2018-09-04T18:38:11.418Z,10.87
2018-09-04T18:40:40.151Z,10.70
2018-09-04T18:43:08.758Z,11.23
2018-09-04T18:45:49.554Z,10.10
2018-09-04T18:48:19.070Z,9.73
2018-09-04T18:50:52.735Z,10.27
2018-09-04T18:53:20.183Z,9.90
2018-09-04T18:55:51.085Z,9.50
2018-09-04T18:58:19.028Z,9.10
2018-09-04T19:00:46.901Z,8.23
2018-09-04T19:03:15.532Z,8.60
2018-09-04T19:05:47.058Z,8.47
2018-09-04T19:08:16.627Z,8.47
2018-09-04T19:10:44.365Z,8.90
2018-09-04T19:13:11.890Z,9.23
2018-09-04T19:15:41.858Z,9.67
2018-09-04T19:18:09.998Z,9.97
2018-09-04T19:20:40.966Z,9.57
2018-09-04T19:23:10.420Z,9.50
2018-09-04T19:25:39.602Z,8.87
2018-09-04T19:28:08.561Z,8.53
2018-09-04T19:30:36.416Z,8.73
2018-09-04T19:33:05.050Z,9.10
2018-09-04T19:35:34.779Z,7.50
2018-09-04T19:38:02.176Z,8.50
2018-09-04T19:40:29.510Z,8.13
2018-09-04T19:42:56.956Z,8.30
2018-09-04T19:45:24.346Z,7.37
2018-09-04T19:47:51.772Z,7.47
2018-09-04T19:50:20.277Z,7.27
2018-09-04T19:52:47.601Z,7.63
2018-09-04T19:55:15.296Z,7.53
2018-09-04T19:57:42.716Z,7.43
2018-09-04T20:00:10.579Z,7.20
2018-09-04T20:02:38.490Z,7.50
2018-09-04T20:05:07.253Z,7.07
2018-09-04T20:07:34.609Z,6.23
2018-09-04T20:10:02.832Z,6.17
2018-09-04T20:12:30.114Z,6.60
2018-09-04T20:14:57.470Z,5.17
2018-09-04T20:17:24.912Z,5.63
2018-09-04T20:19:52.309Z,5.53
2018-09-04T20:22:19.669Z,4.93
2018-09-04T20:24:46.981Z,4.53
2018-09-04T20:27:14.435Z,4.70
2018-09-04T20:29:41.787Z,5.00
2018-09-04T20:32:09.007Z,5.17
2018-09-04T20:34:36.530Z,4.33
2018-09-04T20:37:03.865Z,4.83
2018-09-04T20:39:31.132Z,5.47
2018-09-04T20:41:58.441Z,6.10
2018-09-04T20:44:25.745Z,6.27
2018-09-04T20:46:53.040Z,5.60
2018-09-04T20:49:20.313Z,6.13
2018-09-04T20:51:48.381Z,5.87
2018-09-04T20:54:15.751Z,4.97
2018-09-04T20:56:50.070Z,4.77
2018-09-04T20:59:28.865Z,4.97
2018-09-04T21:02:07.655Z,4.70
2018-09-04T21:04:46.330Z,5.70
2018-09-04T21:09:25.077Z,4.97
2018-09-04T21:11:52.360Z,4.50
2018-09-04T21:14:19.706Z,4.77
2018-09-04T21:16:47.016Z,5.03
2018-09-04T21:19:14.341Z,5.03
2018-09-04T21:21:41.670Z,5.17
2018-09-04T21:24:08.968Z,4.67
2018-09-04T21:26:36.230Z,4.97
2018-09-04T21:29:03.701Z,5.27
2018-09-04T21:31:31.081Z,4.37
2018-09-04T21:33:58.285Z,5.03
2018-09-04T21:36:25.570Z,4.57
2018-09-04T21:38:52.838Z,5.20
2018-09-04T21:41:20.100Z,5.03
2018-09-04T21:43:47.407Z,4.53
2018-09-04T21:46:14.639Z,5.10
2018-09-04T21:48:41.861Z,4.97
2018-09-04T21:51:09.464Z,4.77
2018-09-04T21:53:36.765Z,5.00
2018-09-04T21:56:04.311Z,5.23
2018-09-04T21:58:31.542Z,4.90
2018-09-04T22:00:58.825Z,5.10
2018-09-04T22:03:35.086Z,4.70
2018-09-04T22:06:02.358Z,5.10
2018-09-04T22:08:30.448Z,4.90
2018-09-04T22:10:57.708Z,4.60
2018-09-04T22:13:25.034Z,5.63
2018-09-04T22:15:52.315Z,4.20
2018-09-04T22:18:19.585Z,4.50
2018-09-04T22:20:46.978Z,5.10
2018-09-04T22:23:14.228Z,4.23
2018-09-04T22:25:41.482Z,5.10
2018-09-04T22:28:08.906Z,4.83
2018-09-04T22:30:36.158Z,4.57
2018-09-04T22:33:03.442Z,4.30
2018-09-04T22:35:30.708Z,4.87
2018-09-04T22:37:59.003Z,4.57
2018-09-04T22:40:26.279Z,5.03
2018-09-04T22:42:53.542Z,5.40
2018-09-04T22:45:20.935Z,4.80
2018-09-04T22:47:48.256Z,4.80
2018-09-04T22:50:21.226Z,4.50
2018-09-04T22:52:48.543Z,4.40
2018-09-04T22:55:15.800Z,5.07
2018-09-04T22:57:43.907Z,4.73
2018-09-04T23:00:12.158Z,4.30
2018-09-04T23:02:40.288Z,4.80
2018-09-04T23:05:07.590Z,5.30
2018-09-04T23:07:34.872Z,5.70
2018-09-04T23:10:02.137Z,5.13
2018-09-04T23:12:29.409Z,4.67
2018-09-04T23:14:56.672Z,5.17
2018-09-04T23:17:23.972Z,5.03
2018-09-04T23:19:51.257Z,4.77
2018-09-04T23:22:18.517Z,4.97
2018-09-04T23:24:45.810Z,5.60
2018-09-04T23:27:13.103Z,4.47
2018-09-04T23:29:40.384Z,4.20
2018-09-04T23:32:07.648Z,5.30
2018-09-04T23:34:35.399Z,4.50
2018-09-04T23:37:02.650Z,4.53
2018-09-04T23:39:30.037Z,4.53
2018-09-04T23:41:57.273Z,4.43
2018-09-04T23:44:24.573Z,4.27
2018-09-04T23:46:51.928Z,4.63
2018-09-04T23:49:19.234Z,4.80
2018-09-04T23:51:46.503Z,4.40
2018-09-04T23:54:13.776Z,4.70
2018-09-04T23:56:41.015Z,4.10
2018-09-04T23:59:08.362Z,4.57
